Time;durP1;ratioP1;P1;durP2;ratioP2;P2;SDS_P1;SDS_P2;PMS_P1;PMS_P2;Temp;Humidity;BMP_temperature;BMP_pressure;BME280_temperature;BME280_humidity;BME280_pressure;Samples;Min_cycle;Max_cycle;Signal;HPM_P1;HPM_P2
2021/08/08 00:01:49;;;;;;;1.95;1.02;;;15.70;70.60;;;;;;5028583;28;20641;-70
2021/08/08 00:04:16;;;;;;;1.45;0.60;;;15.70;70.20;;;;;;5028413;28;20120;-69
2021/08/08 00:06:43;;;;;;;2.00;0.95;;;15.70;70.30;;;;;;5028601;28;20037;-66
2021/08/08 00:09:12;;;;;;;2.10;0.82;;;15.80;70.70;;;;;;5026915;28;20349;-68
2021/08/08 00:11:40;;;;;;;1.17;0.80;;;15.80;69.80;;;;;;5027457;28;20108;-71
2021/08/08 00:14:08;;;;;;;1.77;0.57;;;15.80;70.10;;;;;;5028000;28;20030;-68
2021/08/08 00:16:36;;;;;;;1.95;1.00;;;15.80;69.10;;;;;;5028123;28;20048;-73
2021/08/08 00:19:04;;;;;;;2.83;0.95;;;15.90;69.70;;;;;;5028577;28;20013;-70
2021/08/08 00:21:31;;;;;;;1.40;0.90;;;15.90;70.10;;;;;;5013605;28;20552;-74
2021/08/08 00:23:58;;;;;;;1.50;0.90;;;15.90;69.20;;;;;;5023510;28;20032;-68
2021/08/08 00:26:26;;;;;;;3.28;0.90;;;16.00;70.40;;;;;;5030226;28;20037;-67
2021/08/08 00:28:53;;;;;;;1.27;0.68;;;16.00;69.80;;;;;;5021572;28;20033;-67
2021/08/08 00:31:24;;;;;;;2.20;0.80;;;16.00;71.20;;;;;;5012456;28;20073;-70
2021/08/08 00:33:52;;;;;;;1.73;0.70;;;16.00;69.90;;;;;;5029854;28;20456;-66
2021/08/08 00:36:22;;;;;;;3.90;1.30;;;16.10;69.70;;;;;;5033162;28;20417;-68
2021/08/08 00:38:49;;;;;;;3.25;1.05;;;16.10;69.70;;;;;;5031031;28;20013;-72
2021/08/08 00:41:17;;;;;;;1.65;0.70;;;16.20;70.10;;;;;;5029553;28;20081;-73
2021/08/08 00:43:44;;;;;;;1.70;0.73;;;16.20;69.40;;;;;;5030642;28;20103;-70
2021/08/08 00:46:11;;;;;;;2.28;0.80;;;16.20;69.30;;;;;;5029213;28;20025;-69
2021/08/08 00:48:39;;;;;;;1.83;0.98;;;16.20;69.30;;;;;;5030634;28;20022;-69
2021/08/08 00:51:06;;;;;;;3.65;1.20;;;16.20;69.10;;;;;;5032006;28;20035;-75
2021/08/08 00:53:34;;;;;;;1.30;0.80;;;16.30;69.70;;;;;;5028951;28;20028;-69
2021/08/08 00:56:01;;;;;;;2.75;0.77;;;16.30;69.60;;;;;;5009976;28;20099;-69
2021/08/08 00:58:29;;;;;;;1.55;0.80;;;16.30;69.10;;;;;;5026879;28;20381;-69
2021/08/08 01:01:07;;;;;;;2.15;0.88;;;16.30;69.70;;;;;;5030875;28;20056;-62
2021/08/08 01:03:35;;;;;;;1.45;0.95;;;16.30;69.30;;;;;;5026497;28;20029;-66
2021/08/08 01:06:14;;;;;;;2.35;0.95;;;16.30;69.10;;;;;;5025510;28;20021;-67
2021/08/08 01:08:51;;;;;;;2.50;0.95;;;16.40;69.40;;;;;;5029131;28;20109;-67
2021/08/08 01:11:20;;;;;;;2.85;0.90;;;16.40;69.40;;;;;;5029980;28;20092;-71
2021/08/08 01:13:49;;;;;;;0.90;0.70;;;16.40;69.60;;;;;;5029117;28;20033;-68
2021/08/08 01:16:18;;;;;;;2.22;0.95;;;16.40;69.40;;;;;;5022393;28;20032;-67
2021/08/08 01:18:46;;;;;;;1.48;0.95;;;16.40;70.30;;;;;;5027935;28;20033;-68
2021/08/08 01:21:14;;;;;;;1.60;0.80;;;16.50;70.10;;;;;;5030787;28;20498;-66
2021/08/08 01:23:44;;;;;;;1.92;0.57;;;16.50;69.80;;;;;;5028509;28;20422;-68
2021/08/08 01:26:11;;;;;;;3.92;1.10;;;16.50;69.60;;;;;;5024707;28;20113;-71
2021/08/08 01:28:39;;;;;;;2.47;0.95;;;16.50;69.50;;;;;;5029405;28;20028;-66
2021/08/08 01:31:06;;;;;;;3.72;1.65;;;16.50;69.60;;;;;;5028542;28;20060;-70
2021/08/08 01:33:34;;;;;;;2.55;0.88;;;16.50;69.30;;;;;;5028728;28;20030;-69
2021/08/08 01:36:01;;;;;;;3.90;1.10;;;16.50;69.70;;;;;;5024260;28;20371;-63
2021/08/08 01:38:34;;;;;;;1.73;1.10;;;16.50;69.80;;;;;;5029052;28;20017;-68
2021/08/08 01:41:05;;;;;;;2.22;1.27;;;16.50;69.30;;;;;;5029015;28;20040;-67
2021/08/08 01:43:33;;;;;;;5.35;1.88;;;16.60;70.10;;;;;;5029000;28;20033;-67
2021/08/08 01:46:07;;;;;;;2.33;0.88;;;16.50;70.60;;;;;;5023932;28;20052;-67
2021/08/08 01:48:37;;;;;;;2.97;1.05;;;16.60;69.70;;;;;;5012380;28;20435;-71
2021/08/08 01:51:06;;;;;;;3.22;1.10;;;16.60;69.60;;;;;;5029282;28;20100;-67
2021/08/08 01:53:34;;;;;;;1.50;0.90;;;16.60;69.50;;;;;;5029806;28;20025;-70
2021/08/08 01:56:01;;;;;;;5.72;1.30;;;16.50;69.60;;;;;;5026277;28;20383;-68
2021/08/08 01:58:29;;;;;;;2.40;0.90;;;16.50;69.70;;;;;;5039578;28;20060;-68
2021/08/08 02:00:58;;;;;;;3.90;1.42;;;16.50;70.00;;;;;;5048687;28;20051;-73
2021/08/08 02:03:39;;;;;;;2.85;1.20;;;16.50;70.30;;;;;;5050030;28;20025;-71
2021/08/08 02:06:08;;;;;;;2.17;1.33;;;16.50;70.40;;;;;;5049363;28;20056;-69
2021/08/08 02:08:36;;;;;;;2.53;1.30;;;16.50;69.60;;;;;;5049545;28;20029;-68
2021/08/08 02:11:05;;;;;;;3.35;1.20;;;16.50;70.20;;;;;;5031996;28;20078;-66
2021/08/08 02:13:32;;;;;;;4.40;1.50;;;16.50;69.70;;;;;;5047793;28;20036;-64
2021/08/08 02:16:00;;;;;;;3.90;1.10;;;16.50;70.30;;;;;;5047984;28;20056;-68
2021/08/08 02:18:27;;;;;;;3.85;1.25;;;16.50;70.20;;;;;;5049195;28;20033;-71
2021/08/08 02:20:55;;;;;;;2.67;1.23;;;16.60;70.50;;;;;;5049264;28;20021;-68
2021/08/08 02:23:23;;;;;;;4.18;1.52;;;16.60;70.40;;;;;;5049582;28;20143;-67
2021/08/08 02:25:53;;;;;;;4.10;1.38;;;16.60;71.90;;;;;;5048064;28;20044;-72
2021/08/08 02:28:20;;;;;;;3.85;1.17;;;16.60;71.50;;;;;;5049563;28;20028;-72
2021/08/08 02:30:48;;;;;;;4.10;1.45;;;16.60;70.70;;;;;;5050134;28;20028;-69
2021/08/08 02:33:15;;;;;;;3.25;1.02;;;16.60;71.30;;;;;;5049049;28;20048;-68
2021/08/08 02:35:43;;;;;;;3.05;1.00;;;16.60;70.20;;;;;;5030994;28;20052;-73
2021/08/08 02:38:10;;;;;;;2.53;1.65;;;16.70;70.50;;;;;;5049123;28;20102;-72
2021/08/08 02:40:37;;;;;;;2.75;1.20;;;16.70;70.70;;;;;;5048593;28;20033;-69
2021/08/08 02:43:05;;;;;;;3.53;1.55;;;16.70;70.40;;;;;;5030374;28;20023;-69
2021/08/08 02:45:32;;;;;;;6.28;1.63;;;16.80;70.20;;;;;;5048445;28;20059;-68
2021/08/08 02:48:00;;;;;;;3.55;1.35;;;16.70;70.10;;;;;;5031150;28;20382;-71
2021/08/08 02:50:27;;;;;;;4.35;1.45;;;16.80;70.20;;;;;;5049107;28;20017;-64
2021/08/08 02:52:58;;;;;;;3.72;1.40;;;16.80;70.10;;;;;;5048903;28;20048;-69
2021/08/08 02:55:25;;;;;;;8.60;1.80;;;16.80;69.90;;;;;;5048761;28;20025;-59
2021/08/08 02:57:53;;;;;;;10.48;2.13;;;16.80;70.00;;;;;;5048444;28;20033;-59
2021/08/08 03:00:20;;;;;;;4.90;1.48;;;17.00;69.90;;;;;;5048705;28;20033;-56
2021/08/08 03:02:47;;;;;;;5.68;2.05;;;16.90;69.40;;;;;;5048429;28;20021;-61
2021/08/08 03:05:15;;;;;;;4.47;1.50;;;16.90;69.80;;;;;;5048153;28;20032;-59
2021/08/08 03:07:42;;;;;;;9.00;2.72;;;17.00;70.00;;;;;;5048163;28;20032;-56
2021/08/08 03:10:11;;;;;;;8.25;1.75;;;17.00;69.70;;;;;;5048387;28;20179;-65
2021/08/08 03:12:38;;;;;;;9.15;2.10;;;17.00;70.20;;;;;;5048225;28;20110;-72
2021/08/08 03:15:06;;;;;;;12.63;2.03;;;17.00;70.00;;;;;;5048508;28;20028;-73
2021/08/08 03:17:34;;;;;;;8.13;2.10;;;17.00;70.50;;;;;;5049183;28;20044;-72
2021/08/08 03:20:02;;;;;;;5.93;2.00;;;16.90;70.70;;;;;;5049191;28;20158;-74
2021/08/08 03:22:29;;;;;;;6.50;2.03;;;17.00;70.60;;;;;;5048632;28;20121;-67
2021/08/08 03:24:56;;;;;;;10.75;2.38;;;16.90;70.70;;;;;;5047578;28;20104;-67
2021/08/08 03:27:24;;;;;;;6.32;1.85;;;16.90;71.10;;;;;;5048290;28;20069;-71
2021/08/08 03:29:52;;;;;;;12.65;2.35;;;16.90;70.70;;;;;;5049049;28;20097;-68
2021/08/08 03:32:19;;;;;;;4.78;1.92;;;16.90;70.50;;;;;;5048942;28;20036;-73
2021/08/08 03:34:47;;;;;;;6.13;2.08;;;16.90;70.90;;;;;;5032352;28;20034;-73
2021/08/08 03:37:17;;;;;;;7.00;2.35;;;16.90;71.20;;;;;;5028812;28;20045;-68
2021/08/08 03:39:44;;;;;;;9.32;1.98;;;17.00;70.20;;;;;;5028823;28;20432;-72
2021/08/08 03:42:12;;;;;;;5.82;2.00;;;16.90;71.50;;;;;;5021040;28;20022;-65
2021/08/08 03:44:39;;;;;;;5.20;1.58;;;16.90;71.30;;;;;;5025763;28;20029;-65
2021/08/08 03:47:07;;;;;;;6.38;2.30;;;17.00;71.50;;;;;;5026219;28;20112;-66
2021/08/08 03:49:34;;;;;;;6.65;1.70;;;16.90;71.40;;;;;;5021395;28;20033;-63
2021/08/08 03:52:01;;;;;;;11.75;1.95;;;17.00;71.50;;;;;;5008733;28;20121;-65
2021/08/08 03:54:29;;;;;;;5.30;1.77;;;17.00;71.40;;;;;;5025705;28;20033;-62
2021/08/08 03:56:57;;;;;;;6.20;2.63;;;17.00;71.30;;;;;;5024327;28;20021;-66
2021/08/08 03:59:24;;;;;;;6.80;2.00;;;17.00;71.10;;;;;;5025986;28;20087;-67
2021/08/08 04:01:52;;;;;;;6.93;2.20;;;17.00;71.30;;;;;;5023841;28;20673;-68
2021/08/08 04:04:19;;;;;;;6.85;1.92;;;17.10;71.30;;;;;;5027346;28;20026;-68
2021/08/08 04:06:46;;;;;;;7.65;1.65;;;17.10;71.30;;;;;;5023855;28;20443;-67
2021/08/08 04:09:14;;;;;;;7.57;2.42;;;17.10;71.00;;;;;;5026866;28;20095;-68
2021/08/08 04:11:41;;;;;;;6.20;2.05;;;17.10;71.30;;;;;;5026009;28;20099;-68
2021/08/08 04:14:08;;;;;;;6.20;2.00;;;17.10;71.20;;;;;;5026872;28;20037;-65
2021/08/08 04:16:36;;;;;;;6.43;2.05;;;17.10;71.10;;;;;;5022797;28;20072;-67
2021/08/08 04:19:03;;;;;;;8.00;2.85;;;17.10;71.00;;;;;;5025235;28;20120;-67
2021/08/08 04:21:33;;;;;;;5.65;3.15;;;17.10;71.10;;;;;;5027183;28;20087;-69
2021/08/08 04:24:01;;;;;;;7.70;3.42;;;17.10;71.10;;;;;;5026449;28;20038;-69
2021/08/08 04:26:28;;;;;;;6.93;3.10;;;17.10;70.80;;;;;;5021018;28;20113;-70
2021/08/08 04:28:56;;;;;;;6.38;3.40;;;17.20;70.80;;;;;;5031092;28;20095;-67
2021/08/08 04:31:23;;;;;;;8.18;3.30;;;17.20;71.00;;;;;;5004827;28;20046;-69
2021/08/08 04:33:51;;;;;;;8.10;3.83;;;17.10;70.90;;;;;;5026270;28;20029;-68
2021/08/08 04:36:18;;;;;;;7.97;4.40;;;17.10;71.10;;;;;;5018779;28;20555;-67
2021/08/08 04:38:46;;;;;;;8.07;3.60;;;17.10;71.10;;;;;;5026074;28;20029;-66
2021/08/08 04:41:13;;;;;;;13.35;5.32;;;17.10;71.20;;;;;;5026555;28;20383;-70
2021/08/08 04:43:40;;;;;;;7.28;4.25;;;17.10;71.20;;;;;;5029256;28;20125;-65
2021/08/08 04:46:08;;;;;;;10.23;5.20;;;17.10;71.30;;;;;;5026136;28;20023;-72
2021/08/08 04:48:35;;;;;;;8.88;5.85;;;17.10;71.40;;;;;;5024250;28;20029;-72
2021/08/08 04:51:03;;;;;;;8.40;6.30;;;17.00;71.80;;;;;;5024951;28;20117;-76
2021/08/08 04:53:30;;;;;;;9.18;7.05;;;17.00;71.40;;;;;;5028237;28;20042;-74
2021/08/08 04:55:58;;;;;;;9.68;6.78;;;17.00;71.60;;;;;;5028590;28;20086;-69
2021/08/08 04:58:25;;;;;;;8.80;6.90;;;17.00;71.70;;;;;;5026998;28;20455;-72
2021/08/08 05:00:53;;;;;;;10.10;6.45;;;17.00;72.00;;;;;;5028186;28;20025;-69
2021/08/08 05:03:20;;;;;;;11.27;7.40;;;16.90;72.00;;;;;;5028030;28;20117;-68
2021/08/08 05:05:48;;;;;;;12.43;7.85;;;16.90;72.10;;;;;;5022170;28;20475;-70
2021/08/08 05:08:15;;;;;;;14.57;9.02;;;16.90;72.30;;;;;;5029069;28;20037;-67
2021/08/08 05:10:43;;;;;;;15.82;7.65;;;16.90;72.40;;;;;;5030571;28;20976;-66
2021/08/08 05:13:10;;;;;;;8.65;7.07;;;16.90;72.60;;;;;;5030677;28;20041;-65
2021/08/08 05:15:37;;;;;;;9.52;6.43;;;16.90;72.50;;;;;;5031203;28;20464;-69
2021/08/08 05:18:05;;;;;;;10.18;6.35;;;16.90;72.50;;;;;;5030328;28;20025;-65
2021/08/08 05:20:32;;;;;;;10.68;6.63;;;16.80;72.50;;;;;;5030484;28;20022;-66
2021/08/08 05:23:00;;;;;;;9.70;6.05;;;16.80;72.60;;;;;;5030859;28;20048;-63
2021/08/08 05:25:27;;;;;;;9.77;6.32;;;16.90;73.00;;;;;;5030629;28;20056;-66
2021/08/08 05:27:54;;;;;;;8.90;5.55;;;16.80;73.00;;;;;;5030222;28;20482;-62
2021/08/08 05:30:22;;;;;;;9.45;6.22;;;16.80;73.10;;;;;;5030648;28;20025;-64
2021/08/08 05:32:49;;;;;;;9.15;5.72;;;16.80;73.40;;;;;;5028532;28;20048;-66
2021/08/08 05:35:16;;;;;;;12.50;5.68;;;16.80;73.40;;;;;;5029178;28;20187;-69
2021/08/08 05:37:44;;;;;;;12.35;5.97;;;16.80;74.00;;;;;;5031236;28;20021;-60
2021/08/08 05:40:12;;;;;;;11.35;6.22;;;16.80;74.90;;;;;;5030000;28;20573;-67
2021/08/08 05:42:45;;;;;;;7.43;4.68;;;16.80;74.80;;;;;;5016463;28;20038;-71
2021/08/08 05:45:12;;;;;;;11.48;4.68;;;16.80;74.50;;;;;;5028402;28;20018;-71
2021/08/08 05:47:40;;;;;;;7.10;4.22;;;16.80;74.60;;;;;;5024962;28;20009;-75
2021/08/08 05:50:11;;;;;;;7.10;4.55;;;16.70;74.60;;;;;;5028692;28;20036;-71
2021/08/08 05:52:38;;;;;;;10.35;4.82;;;16.70;74.80;;;;;;5027651;28;20083;-69
2021/08/08 05:55:06;;;;;;;11.00;5.28;;;16.70;74.90;;;;;;5026564;28;20050;-70
2021/08/08 05:57:34;;;;;;;13.52;4.50;;;16.70;74.90;;;;;;5029488;28;20171;-71
2021/08/08 06:00:01;;;;;;;8.30;4.20;;;16.70;74.90;;;;;;5028079;28;20042;-72
2021/08/08 06:02:28;;;;;;;13.07;4.55;;;16.70;74.90;;;;;;5033938;28;20025;-67
2021/08/08 06:04:56;;;;;;;11.10;4.50;;;16.70;75.00;;;;;;5026948;28;20025;-67
2021/08/08 06:07:23;;;;;;;10.95;4.75;;;16.70;74.90;;;;;;5029029;28;20420;-70
2021/08/08 06:09:50;;;;;;;9.55;3.50;;;16.70;74.90;;;;;;5029098;28;20148;-68
2021/08/08 06:12:18;;;;;;;8.75;4.57;;;16.70;74.80;;;;;;5032178;28;20121;-67
2021/08/08 06:14:45;;;;;;;8.25;4.40;;;16.70;74.90;;;;;;5021645;28;20033;-72
2021/08/08 06:17:13;;;;;;;8.38;4.40;;;16.70;74.70;;;;;;5027914;28;20419;-65
2021/08/08 06:19:40;;;;;;;11.25;4.65;;;16.70;75.40;;;;;;5028493;28;20041;-70
2021/08/08 06:22:08;;;;;;;12.15;4.88;;;16.70;75.00;;;;;;5028351;28;20484;-71
2021/08/08 06:24:35;;;;;;;8.98;4.18;;;16.70;74.90;;;;;;5026378;28;20472;-71
2021/08/08 06:27:02;;;;;;;13.77;4.13;;;16.70;74.70;;;;;;5029699;28;20044;-68
2021/08/08 06:29:30;;;;;;;7.07;3.13;;;16.70;74.80;;;;;;5027854;28;20026;-64
2021/08/08 06:31:57;;;;;;;10.13;3.72;;;16.70;75.20;;;;;;5027834;28;20047;-71
2021/08/08 06:34:24;;;;;;;10.30;4.35;;;16.70;74.40;;;;;;5028254;28;20112;-66
2021/08/08 06:36:52;;;;;;;6.85;3.45;;;16.70;74.40;;;;;;5024491;28;20060;-68
2021/08/08 06:39:19;;;;;;;6.43;3.42;;;16.70;74.40;;;;;;5028717;28;20472;-67
2021/08/08 06:41:46;;;;;;;8.07;4.03;;;16.70;74.30;;;;;;5026931;28;21172;-68
2021/08/08 06:44:14;;;;;;;7.03;3.65;;;16.70;74.10;;;;;;5028681;28;20020;-68
2021/08/08 06:46:41;;;;;;;6.68;3.33;;;16.70;74.10;;;;;;5028242;28;20018;-66
2021/08/08 06:49:09;;;;;;;8.75;3.45;;;16.70;74.10;;;;;;5027996;28;20113;-70
2021/08/08 06:51:36;;;;;;;6.63;3.42;;;16.80;74.00;;;;;;5027870;28;20018;-70
2021/08/08 06:54:04;;;;;;;9.65;3.13;;;16.80;73.90;;;;;;5026793;28;20030;-68
2021/08/08 06:56:32;;;;;;;6.88;3.25;;;16.80;73.80;;;;;;5006731;28;20467;-65
2021/08/08 06:59:00;;;;;;;9.73;3.47;;;16.80;73.80;;;;;;5028555;28;20546;-68
2021/08/08 07:01:27;;;;;;;6.47;3.33;;;16.70;73.70;;;;;;5028787;28;20036;-74
2021/08/08 07:03:55;;;;;;;9.00;3.65;;;16.80;74.00;;;;;;5029416;28;20535;-70
2021/08/08 07:06:22;;;;;;;8.52;3.05;;;16.80;73.80;;;;;;5022864;28;20036;-63
2021/08/08 07:08:50;;;;;;;6.60;2.83;;;16.80;73.70;;;;;;5027173;28;20071;-64
2021/08/08 07:11:17;;;;;;;6.90;3.08;;;16.80;73.70;;;;;;5027461;28;20444;-67
2021/08/08 07:13:45;;;;;;;7.70;3.33;;;16.80;73.80;;;;;;5027380;28;20403;-70
2021/08/08 07:16:12;;;;;;;9.75;3.65;;;16.80;73.70;;;;;;5023497;28;20025;-69
2021/08/08 07:18:42;;;;;;;6.38;3.13;;;16.80;73.80;;;;;;5027852;28;20503;-66
2021/08/08 07:21:10;;;;;;;5.75;2.80;;;16.80;73.60;;;;;;5026516;28;20059;-73
2021/08/08 07:23:38;;;;;;;8.90;3.65;;;16.70;73.50;;;;;;5027460;28;20030;-73
2021/08/08 07:26:05;;;;;;;6.65;3.40;;;16.70;73.60;;;;;;5025252;28;20523;-70
2021/08/08 07:28:33;;;;;;;6.60;3.00;;;16.70;73.60;;;;;;5030488;28;20022;-69
2021/08/08 07:31:00;;;;;;;8.32;3.50;;;16.80;73.60;;;;;;5024661;28;20080;-67
2021/08/08 07:33:28;;;;;;;8.35;3.33;;;16.70;73.70;;;;;;5029049;28;20040;-65
2021/08/08 07:35:55;;;;;;;6.53;3.22;;;16.70;73.70;;;;;;5022360;28;20060;-67
2021/08/08 07:38:23;;;;;;;5.78;2.53;;;16.70;73.70;;;;;;5027949;28;20028;-67
2021/08/08 07:40:50;;;;;;;8.60;2.85;;;16.70;73.60;;;;;;5028245;28;20495;-68
2021/08/08 07:43:18;;;;;;;5.93;3.33;;;16.70;73.50;;;;;;5028857;28;20036;-70
2021/08/08 07:45:45;;;;;;;4.68;2.50;;;16.70;73.50;;;;;;5026749;28;20094;-73
2021/08/08 07:48:13;;;;;;;5.55;3.20;;;16.70;73.50;;;;;;5026603;28;20065;-76
2021/08/08 07:50:40;;;;;;;7.88;3.20;;;16.70;73.40;;;;;;5027659;28;20108;-68
2021/08/08 07:53:07;;;;;;;7.60;3.33;;;16.70;73.50;;;;;;5028873;28;20034;-74
2021/08/08 07:55:35;;;;;;;6.10;2.92;;;16.70;73.50;;;;;;5023329;28;20472;-72
2021/08/08 07:58:03;;;;;;;6.25;2.50;;;16.70;73.40;;;;;;5028784;28;20026;-74
2021/08/08 08:00:30;;;;;;;5.35;2.83;;;16.60;73.40;;;;;;5028223;28;20078;-76
2021/08/08 08:03:01;;;;;;;5.45;2.72;;;16.60;73.40;;;;;;5028542;28;20107;-70
2021/08/08 08:05:29;;;;;;;7.25;2.90;;;16.60;73.50;;;;;;5024193;28;20377;-72
2021/08/08 08:07:56;;;;;;;5.72;2.78;;;16.60;73.60;;;;;;5028269;28;20077;-70
2021/08/08 08:10:24;;;;;;;6.07;3.13;;;16.50;73.70;;;;;;5026610;28;20065;-71
2021/08/08 08:12:51;;;;;;;9.75;3.95;;;16.50;73.70;;;;;;5026628;28;20123;-72
2021/08/08 08:15:18;;;;;;;9.77;3.72;;;16.50;73.70;;;;;;5023738;28;20083;-73
2021/08/08 08:17:49;;;;;;;14.13;6.82;;;16.50;73.80;;;;;;5031837;28;20510;-69
2021/08/08 08:20:16;;;;;;;54.10;25.50;;;16.40;73.80;;;;;;5026814;28;20037;-71
2021/08/08 08:22:44;;;;;;;64.88;30.65;;;16.40;74.30;;;;;;5028192;28;20475;-67
2021/08/08 08:25:12;;;;;;;62.47;34.40;;;16.40;74.30;;;;;;5019478;28;20155;-67
2021/08/08 08:27:41;;;;;;;88.78;41.55;;;16.30;74.30;;;;;;5023880;28;20029;-68
2021/08/08 08:30:09;;;;;;;93.63;46.55;;;16.30;74.60;;;;;;5030373;28;20037;-71
2021/08/08 08:32:37;;;;;;;122.22;62.60;;;16.30;74.40;;;;;;5028493;28;20057;-73
2021/08/08 08:35:05;;;;;;;164.52;82.18;;;16.30;74.60;;;;;;5026221;28;20553;-69
2021/08/08 08:37:33;;;;;;;156.70;82.65;;;16.30;75.00;;;;;;5025594;28;20033;-69
2021/08/08 08:40:03;;;;;;;161.05;84.90;;;16.30;74.90;;;;;;5028202;28;20129;-69
2021/08/08 08:42:32;;;;;;;162.25;90.18;;;16.30;74.90;;;;;;5031771;28;20020;-68
2021/08/08 08:45:02;;;;;;;175.02;94.50;;;16.30;75.00;;;;;;5027727;28;20030;-73
2021/08/08 08:47:31;;;;;;;175.93;99.63;;;16.30;75.00;;;;;;5032412;28;20487;-73
2021/08/08 08:50:04;;;;;;;190.98;102.00;;;16.30;75.00;;;;;;5031073;28;20475;-70
2021/08/08 08:52:31;;;;;;;190.23;105.80;;;16.30;75.00;;;;;;5027678;28;20103;-65
2021/08/08 08:54:59;;;;;;;190.02;104.60;;;16.30;74.90;;;;;;5025335;28;21927;-72
2021/08/08 08:57:28;;;;;;;179.95;103.85;;;16.30;74.90;;;;;;5033106;28;20375;-66
2021/08/08 08:59:55;;;;;;;179.02;103.10;;;16.30;75.00;;;;;;5028617;28;20028;-65
2021/08/08 09:02:22;;;;;;;192.20;108.05;;;16.40;75.00;;;;;;5031705;28;20499;-70
2021/08/08 09:04:50;;;;;;;188.18;106.35;;;16.40;75.00;;;;;;5026417;28;20045;-64
2021/08/08 09:07:17;;;;;;;191.25;107.50;;;16.30;75.00;;;;;;5030956;28;20037;-67
2021/08/08 09:09:44;;;;;;;179.63;103.25;;;16.30;74.90;;;;;;5029045;28;20052;-64
2021/08/08 09:12:21;;;;;;;177.60;106.95;;;16.30;75.00;;;;;;5028560;28;20029;-68
2021/08/08 09:14:57;;;;;;;176.10;106.40;;;16.30;75.10;;;;;;5006119;28;20034;-64
2021/08/08 09:17:25;;;;;;;187.18;108.78;;;16.30;75.10;;;;;;5026405;28;20026;-65
2021/08/08 09:20:04;;;;;;;190.90;110.22;;;16.30;75.00;;;;;;5029971;28;20033;-66
2021/08/08 09:22:32;;;;;;;191.18;110.75;;;16.30;75.20;;;;;;5026869;28;20535;-63
2021/08/08 09:24:59;;;;;;;184.38;109.07;;;16.20;75.10;;;;;;5026421;28;20040;-64
2021/08/08 09:27:38;;;;;;;195.48;111.20;;;16.20;75.20;;;;;;5029395;28;20026;-70
2021/08/08 09:30:25;;;;;;;193.60;111.90;;;16.20;75.20;;;;;;5029665;28;20112;-70
2021/08/08 09:33:03;;;;;;;186.70;111.78;;;16.20;75.10;;;;;;5029738;28;20088;-67
2021/08/08 09:35:42;;;;;;;184.27;108.07;;;16.20;75.20;;;;;;5030225;28;20120;-63
2021/08/08 09:38:13;;;;;;;180.90;110.43;;;16.20;75.30;;;;;;5030734;28;20273;-68
2021/08/08 09:40:43;;;;;;;186.73;109.47;;;16.20;75.40;;;;;;5030216;28;20388;-66
2021/08/08 09:43:13;;;;;;;192.93;115.88;;;16.20;75.60;;;;;;5011992;28;20052;-67
2021/08/08 09:45:41;;;;;;;186.00;109.47;;;16.20;75.40;;;;;;5013118;28;20439;-65
2021/08/08 09:48:13;;;;;;;183.82;109.28;;;16.20;75.60;;;;;;5030191;28;20366;-70
2021/08/08 09:50:41;;;;;;;194.37;111.93;;;16.20;75.50;;;;;;5022022;28;20041;-68
2021/08/08 09:53:16;;;;;;;187.18;109.13;;;16.20;75.70;;;;;;5025768;28;20530;-61
2021/08/08 09:55:44;;;;;;;179.77;110.05;;;16.10;75.50;;;;;;5026000;28;20040;-73
2021/08/08 09:58:27;;;;;;;179.05;106.07;;;16.10;75.50;;;;;;5029482;28;20439;-72
2021/08/08 10:01:01;;;;;;;181.55;107.88;;;16.20;75.60;;;;;;5031868;28;20432;-70
2021/08/08 10:03:29;;;;;;;171.45;108.47;;;16.10;75.60;;;;;;5027131;28;20021;-70
2021/08/08 10:05:56;;;;;;;166.75;103.35;;;16.10;75.50;;;;;;5028920;28;20026;-70
2021/08/08 10:08:25;;;;;;;182.70;112.50;;;16.10;76.10;;;;;;5026886;28;20166;-68
2021/08/08 10:10:54;;;;;;;181.68;107.43;;;16.10;75.80;;;;;;5028600;28;20033;-70
2021/08/08 10:13:32;;;;;;;172.20;104.57;;;16.10;75.70;;;;;;5027983;28;20037;-73
2021/08/08 10:16:00;;;;;;;170.65;107.45;;;16.10;75.60;;;;;;5029390;28;20075;-72
2021/08/08 10:18:36;;;;;;;173.57;107.15;;;16.10;75.70;;;;;;5028842;28;20028;-67
2021/08/08 10:21:05;;;;;;;180.40;108.80;;;16.10;75.80;;;;;;5028535;28;20026;-71
2021/08/08 10:23:35;;;;;;;174.15;105.97;;;16.10;75.70;;;;;;5026336;28;20018;-65
2021/08/08 10:26:02;;;;;;;170.07;105.63;;;16.10;75.60;;;;;;5031131;28;20361;-68
2021/08/08 10:28:30;;;;;;;163.15;99.63;;;16.10;75.60;;;;;;5028930;28;20105;-69
2021/08/08 10:31:03;;;;;;;159.23;99.82;;;16.10;75.70;;;;;;5028253;28;20021;-67
2021/08/08 10:33:30;;;;;;;;;;;16.10;75.80;;;;;;5024277;28;20044;-69
2021/08/08 10:36:00;;;;;;;166.52;103.68;;;16.10;75.70;;;;;;5027949;28;19987;-70
2021/08/08 10:38:36;;;;;;;162.60;100.35;;;16.10;75.60;;;;;;5028652;28;20030;-68
2021/08/08 10:41:11;;;;;;;160.43;100.82;;;16.10;75.70;;;;;;5026308;28;20084;-70
2021/08/08 10:43:44;;;;;;;163.63;101.80;;;16.10;75.70;;;;;;5022665;28;20087;-69
2021/08/08 10:46:13;;;;;;;161.68;100.50;;;16.10;75.70;;;;;;5028503;28;20624;-68
2021/08/08 10:48:43;;;;;;;166.85;98.07;;;16.10;75.70;;;;;;5029160;28;20041;-65
2021/08/08 10:51:26;;;;;;;169.32;98.75;;;16.10;75.70;;;;;;5010198;28;20156;-67
2021/08/08 10:54:02;;;;;;;153.18;94.57;;;16.10;75.60;;;;;;5021350;28;20083;-68
2021/08/08 10:56:45;;;;;;;148.23;92.88;;;16.10;75.60;;;;;;5031470;28;20029;-69
2021/08/08 10:59:20;;;;;;;155.32;95.40;;;16.00;75.60;;;;;;5027873;28;20380;-68
2021/08/08 11:02:07;;;;;;;148.65;92.53;;;16.10;75.70;;;;;;5026805;28;20076;-63
2021/08/08 11:04:35;;;;;;;143.27;89.45;;;16.00;75.70;;;;;;5008711;28;20029;-65
2021/08/08 11:07:04;;;;;;;138.45;86.72;;;16.00;75.70;;;;;;5027419;28;20036;-65
2021/08/08 11:09:33;;;;;;;144.68;89.50;;;16.10;75.80;;;;;;5028877;28;20079;-71
2021/08/08 11:12:01;;;;;;;135.45;86.82;;;16.10;76.00;;;;;;5026723;28;20652;-64
2021/08/08 11:14:30;;;;;;;150.05;92.18;;;16.00;75.90;;;;;;5024133;28;20061;-71
2021/08/08 11:17:04;;;;;;;130.65;83.57;;;16.00;75.80;;;;;;5027831;28;20017;-63
2021/08/08 11:19:41;;;;;;;136.75;85.90;;;16.00;75.80;;;;;;5024909;28;20499;-62
2021/08/08 11:22:17;;;;;;;123.85;79.50;;;16.10;75.90;;;;;;5026510;28;20148;-62
2021/08/08 11:25:00;;;;;;;131.80;79.75;;;16.10;76.00;;;;;;5027183;28;20072;-60
2021/08/08 11:27:35;;;;;;;139.55;83.90;;;16.00;75.90;;;;;;5027419;28;20026;-61
2021/08/08 11:30:06;;;;;;;125.38;77.50;;;16.00;75.90;;;;;;5028601;28;20021;-68
2021/08/08 11:32:35;;;;;;;126.75;81.60;;;16.00;75.80;;;;;;5008392;28;20595;-67
2021/08/08 11:35:10;;;;;;;132.15;82.30;;;16.00;75.80;;;;;;5006164;28;20049;-67
2021/08/08 11:37:46;;;;;;;127.10;81.65;;;16.00;75.80;;;;;;5022601;28;20136;-68
2021/08/08 11:40:28;;;;;;;120.93;77.65;;;16.00;75.90;;;;;;5028251;28;20384;-66
2021/08/08 11:43:02;;;;;;;127.70;75.85;;;16.00;75.80;;;;;;5028059;28;20029;-68
2021/08/08 11:45:34;;;;;;;111.63;74.53;;;16.00;76.00;;;;;;5010563;28;20040;-68
2021/08/08 11:48:02;;;;;;;112.47;75.78;;;16.00;75.90;;;;;;5028232;28;20021;-67
2021/08/08 11:50:30;;;;;;;120.30;74.57;;;16.00;76.00;;;;;;5027209;28;20025;-68
2021/08/08 11:53:04;;;;;;;102.18;66.00;;;16.00;76.00;;;;;;5028189;28;20029;-67
2021/08/08 11:55:32;;;;;;;109.32;70.10;;;15.90;76.10;;;;;;5027801;28;20025;-67
2021/08/08 11:58:11;;;;;;;109.13;67.50;;;15.90;76.10;;;;;;5027773;28;20059;-72
2021/08/08 12:00:41;;;;;;;109.18;69.35;;;15.90;76.20;;;;;;5026314;28;20057;-69
2021/08/08 12:03:11;;;;;;;109.95;69.80;;;15.90;76.20;;;;;;5028268;28;20037;-68
2021/08/08 12:05:41;;;;;;;105.45;66.80;;;15.90;76.30;;;;;;5027435;28;20025;-65
2021/08/08 12:08:10;;;;;;;108.82;64.35;;;15.90;76.50;;;;;;5028078;28;20021;-66
2021/08/08 12:10:39;;;;;;;101.47;66.03;;;15.90;76.40;;;;;;5010277;28;20026;-66
2021/08/08 12:13:20;;;;;;;102.13;67.95;;;15.90;76.50;;;;;;5027631;28;20037;-67
2021/08/08 12:15:48;;;;;;;98.13;63.40;;;15.80;76.50;;;;;;5029867;28;20030;-68
2021/08/08 12:18:26;;;;;;;99.00;63.65;;;15.80;76.60;;;;;;5031982;28;20078;-70
2021/08/08 12:20:53;;;;;;;98.38;61.00;;;15.80;76.70;;;;;;5031833;28;20048;-69
2021/08/08 12:23:25;;;;;;;96.25;61.83;;;15.80;76.70;;;;;;5030728;28;20017;-65
2021/08/08 12:26:06;;;;;;;89.90;58.03;;;15.80;76.90;;;;;;5031594;28;20025;-66
2021/08/08 12:28:33;;;;;;;91.45;59.50;;;15.80;76.90;;;;;;5031711;28;20067;-65
2021/08/08 12:31:11;;;;;;;93.72;58.22;;;15.80;77.00;;;;;;5032154;28;20037;-65
2021/08/08 12:33:39;;;;;;;81.45;54.35;;;15.70;77.00;;;;;;5032048;28;20041;-66
2021/08/08 12:36:12;;;;;;;83.30;53.90;;;15.70;77.20;;;;;;5029562;28;20053;-65
2021/08/08 12:38:52;;;;;;;;;;;15.70;77.20;;;;;;5031793;28;20464;-65
2021/08/08 12:41:41;;;;;;;81.25;51.38;;;15.70;77.30;;;;;;5031556;28;19952;-65
2021/08/08 12:44:10;;;;;;;86.07;52.60;;;15.70;77.30;;;;;;5031314;28;20017;-67
2021/08/08 12:46:40;;;;;;;85.03;52.28;;;15.70;77.40;;;;;;5031067;28;20027;-69